KORH

Worcester Regional Airport

Worcester, Massachusetts, USA
METAR KORH 212154Z 07005KT 10SM SCT049 BKN060 BKN090 23/15 A2981 RMK AO2 SLP091 T02280150
Observed Flight Rules
Jun-21 @ 21:54 UTC (10 minutes ago) Visual Flight Rules
Wind Visibility Clouds
70° at 5 knots 10 miles
  • Scattered at 4,900' AGL
  • Broken at 6,000' AGL
  • Broken at 9,000' AGL
Temperatures Readings
Current 23°C / 73°F
Dewpoint 15°C / 59°F
Humidity 61%
Altimeter 29.81" Hg
Pressure 1009.1 hPa
Elevation 304
METAR KORH 212154Z 07005KT 10SM SCT049 BKN060 BKN090 23/15 A2981 RMK AO2 SLP091 T02280150
Observed Flight Rules
Jun-21 @ 21:54 UTC
(10 minutes ago)
VFR
Wind Visibility
70° at 5 knots 10 miles
Clouds
  • Scattered at 4,900' AGL
  • Broken at 6,000' AGL
  • Broken at 9,000' AGL
Temperature Dewpoint
23°C / 73°F 15°C / 59°F
Humidity Altimeter Pressure
61% 29.81" Hg 1009.1 hPa